Time;durP1;ratioP1;P1;durP2;ratioP2;P2;SDS_P1;SDS_P2;PMS_P1;PMS_P2;Temp;Humidity;BMP_temperature;BMP_pressure;BME280_temperature;BME280_humidity;BME280_pressure;Samples;Min_cycle;Max_cycle;Signal;HPM_P1;HPM_P2
2022/07/15 00:00:43;;;;;;;2.30;0.90;;;12.50;99.90;;;;;;5022477;28;20018;-68
2022/07/15 00:03:09;;;;;;;4.85;1.23;;;12.50;99.90;;;;;;5021194;28;20038;-71
2022/07/15 00:05:34;;;;;;;3.22;1.45;;;12.50;99.90;;;;;;5021533;28;20146;-69
2022/07/15 00:08:00;;;;;;;11.88;1.52;;;12.50;99.90;;;;;;5022624;28;20029;-71
2022/07/15 00:10:27;;;;;;;3.85;1.05;;;12.40;99.90;;;;;;5022388;28;20125;-68
2022/07/15 00:12:57;;;;;;;3.65;0.68;;;12.40;99.90;;;;;;5022126;28;20101;-69
2022/07/15 00:15:26;;;;;;;6.38;1.17;;;12.40;99.90;;;;;;5022401;28;20033;-69
2022/07/15 00:17:52;;;;;;;3.22;0.85;;;12.40;99.90;;;;;;5021490;28;20117;-69
2022/07/15 00:20:20;;;;;;;5.57;0.68;;;12.40;99.90;;;;;;5022199;28;20034;-70
2022/07/15 00:22:46;;;;;;;3.08;0.93;;;12.30;99.90;;;;;;5020592;28;20124;-68
2022/07/15 00:25:13;;;;;;;1.60;0.88;;;12.40;99.90;;;;;;5021721;28;20116;-68
2022/07/15 00:27:52;;;;;;;7.43;1.13;;;12.40;99.90;;;;;;5020816;28;20065;-69
2022/07/15 00:30:18;;;;;;;1.27;0.80;;;12.40;99.90;;;;;;5021942;28;20026;-70
2022/07/15 00:32:43;;;;;;;0.63;0.50;;;12.40;99.90;;;;;;5022121;28;20037;-70
2022/07/15 00:35:09;;;;;;;3.80;1.20;;;12.40;99.90;;;;;;5022348;28;20092;-71
2022/07/15 00:37:35;;;;;;;5.68;1.25;;;12.40;99.90;;;;;;5020930;28;20038;-71
2022/07/15 00:40:00;;;;;;;1.90;0.88;;;12.40;99.90;;;;;;5020593;28;20033;-70
2022/07/15 00:42:44;;;;;;;0.57;0.35;;;12.40;99.90;;;;;;5021942;28;20057;-69
2022/07/15 00:45:15;;;;;;;4.22;1.13;;;12.50;99.90;;;;;;5021303;28;20068;-70
2022/07/15 00:47:43;;;;;;;4.13;0.82;;;12.50;99.90;;;;;;5021953;28;20034;-71
2022/07/15 00:50:11;;;;;;;7.18;1.67;;;12.50;99.90;;;;;;5021448;28;20029;-71
2022/07/15 00:52:39;;;;;;;3.08;0.55;;;12.50;99.90;;;;;;5021495;28;20041;-69
2022/07/15 00:55:08;;;;;;;2.47;1.27;;;12.50;99.90;;;;;;5021032;28;20026;-70
2022/07/15 00:57:38;;;;;;;0.63;0.55;;;12.40;99.90;;;;;;5020775;28;20053;-69
2022/07/15 01:00:05;;;;;;;4.40;1.08;;;12.50;99.90;;;;;;5021295;28;20022;-70
2022/07/15 01:02:33;;;;;;;9.55;1.25;;;12.40;99.90;;;;;;5021626;28;20041;-70
2022/07/15 01:05:00;;;;;;;9.63;1.10;;;12.40;99.90;;;;;;5021347;28;20043;-71
2022/07/15 01:07:26;;;;;;;3.15;1.00;;;12.40;99.90;;;;;;5021279;28;20049;-68
2022/07/15 01:09:51;;;;;;;2.78;0.90;;;12.40;99.90;;;;;;5021007;28;20049;-69
2022/07/15 01:12:17;;;;;;;5.88;0.77;;;12.40;99.90;;;;;;5020861;28;20116;-69
2022/07/15 01:14:43;;;;;;;2.08;0.70;;;12.50;99.90;;;;;;5021848;28;20045;-71
2022/07/15 01:17:11;;;;;;;3.97;1.13;;;12.40;99.90;;;;;;5021118;28;20030;-69
2022/07/15 01:19:38;;;;;;;2.15;1.40;;;12.50;99.90;;;;;;5019463;28;20034;-69
2022/07/15 01:22:07;;;;;;;3.38;0.85;;;12.50;99.90;;;;;;5021473;28;20030;-68
2022/07/15 01:24:33;;;;;;;3.25;0.93;;;12.50;99.90;;;;;;5021021;28;20025;-70
2022/07/15 01:27:00;;;;;;;0.40;0.38;;;12.50;99.90;;;;;;5020316;28;20535;-71
2022/07/15 01:29:26;;;;;;;2.25;1.08;;;12.50;99.90;;;;;;5020312;28;20033;-68
2022/07/15 01:31:52;;;;;;;8.80;1.20;;;12.60;99.90;;;;;;5020458;28;20044;-69
2022/07/15 01:34:19;;;;;;;4.10;1.33;;;12.50;99.90;;;;;;5021431;28;20053;-70
2022/07/15 01:36:45;;;;;;;4.00;0.57;;;12.50;99.90;;;;;;5021290;28;20030;-72
2022/07/15 01:39:10;;;;;;;0.93;0.40;;;12.50;99.90;;;;;;5021447;28;20064;-71
2022/07/15 01:41:36;;;;;;;6.93;1.15;;;12.50;99.90;;;;;;5024286;28;20022;-69
2022/07/15 01:44:02;;;;;;;3.75;0.80;;;12.50;99.90;;;;;;5025204;28;20112;-69
2022/07/15 01:46:27;;;;;;;7.75;0.63;;;12.50;99.90;;;;;;5024338;28;20033;-69
2022/07/15 01:51:38;;;;;;;5.07;1.17;;;12.40;99.90;;;;;;5024947;28;20037;-70
2022/07/15 01:54:03;;;;;;;1.67;0.50;;;12.50;99.90;;;;;;5024554;28;20034;-69
2022/07/15 01:56:29;;;;;;;4.03;1.08;;;12.50;99.90;;;;;;5024563;28;20149;-68
2022/07/15 01:58:54;;;;;;;4.38;0.85;;;12.50;99.90;;;;;;5024844;28;20022;-70
2022/07/15 02:01:20;;;;;;;3.25;0.90;;;12.50;99.90;;;;;;5024699;28;20034;-70
2022/07/15 02:03:46;;;;;;;3.17;1.42;;;12.50;99.90;;;;;;5024968;28;20083;-69
2022/07/15 02:06:11;;;;;;;7.30;0.93;;;12.50;99.90;;;;;;5024938;28;20413;-68
2022/07/15 02:08:37;;;;;;;2.35;0.98;;;12.50;99.90;;;;;;5024259;28;20030;-68
2022/07/15 02:11:02;;;;;;;5.55;0.55;;;12.50;99.90;;;;;;5024916;28;20032;-70
2022/07/15 02:13:28;;;;;;;3.50;0.50;;;12.50;99.90;;;;;;5023911;28;20058;-69
2022/07/15 02:15:54;;;;;;;4.90;1.13;;;12.40;99.90;;;;;;5024271;28;20465;-69
2022/07/15 02:18:20;;;;;;;1.27;0.85;;;12.50;99.90;;;;;;5024764;28;20029;-71
2022/07/15 02:20:46;;;;;;;0.80;0.40;;;12.50;99.90;;;;;;5024455;28;20030;-70
2022/07/15 02:23:12;;;;;;;3.10;0.75;;;12.60;99.90;;;;;;5024654;28;20030;-69
2022/07/15 02:25:38;;;;;;;1.98;0.57;;;12.60;99.90;;;;;;5024622;28;20030;-70
2022/07/15 02:28:05;;;;;;;6.85;0.85;;;12.60;99.90;;;;;;5024239;28;20053;-70
2022/07/15 02:30:36;;;;;;;2.17;1.00;;;12.60;99.90;;;;;;5024225;28;20602;-69
2022/07/15 02:33:02;;;;;;;1.27;0.82;;;12.60;99.90;;;;;;5023891;28;20029;-68
2022/07/15 02:35:29;;;;;;;2.47;0.43;;;12.60;99.90;;;;;;5023598;28;20030;-68
2022/07/15 02:37:55;;;;;;;5.00;1.00;;;12.60;99.90;;;;;;5022651;28;20487;-69
2022/07/15 02:40:21;;;;;;;3.70;1.10;;;12.60;99.90;;;;;;5024206;28;20033;-70
2022/07/15 02:42:52;;;;;;;0.63;0.55;;;12.60;99.90;;;;;;5023800;28;20081;-70
2022/07/15 02:45:19;;;;;;;3.65;0.68;;;12.70;99.90;;;;;;5023803;28;20093;-70
2022/07/15 02:47:45;;;;;;;2.67;1.02;;;12.70;99.90;;;;;;5023756;28;20084;-71
2022/07/15 02:50:11;;;;;;;1.73;0.70;;;12.70;99.90;;;;;;5024115;28;20116;-70
2022/07/15 02:52:37;;;;;;;12.13;1.83;;;12.70;99.90;;;;;;5024029;28;20516;-69
2022/07/15 02:55:03;;;;;;;3.35;0.40;;;12.70;99.90;;;;;;5023642;28;20498;-71
2022/07/15 02:57:29;;;;;;;6.28;1.35;;;12.70;99.90;;;;;;5022995;28;20045;-69
2022/07/15 02:59:55;;;;;;;2.50;1.10;;;12.70;99.90;;;;;;5023139;28;20033;-69
2022/07/15 03:02:20;;;;;;;6.18;1.92;;;12.70;99.90;;;;;;5023481;28;20030;-71
2022/07/15 03:04:46;;;;;;;6.28;2.88;;;12.70;99.90;;;;;;5023625;28;20040;-69
2022/07/15 03:07:13;;;;;;;10.55;4.70;;;12.70;99.90;;;;;;5023455;28;20017;-71
2022/07/15 03:09:38;;;;;;;19.92;8.02;;;12.70;99.90;;;;;;5022888;28;20156;-70
2022/07/15 03:12:04;;;;;;;12.70;6.32;;;12.70;99.90;;;;;;5022604;28;20502;-72
2022/07/15 03:14:29;;;;;;;14.63;6.28;;;12.70;99.90;;;;;;5022494;28;20084;-70
2022/07/15 03:16:55;;;;;;;12.65;5.32;;;12.70;99.90;;;;;;5022759;28;20038;-69
2022/07/15 03:19:21;;;;;;;15.00;4.50;;;12.60;99.90;;;;;;5023309;28;20084;-70
2022/07/15 03:21:48;;;;;;;7.53;2.40;;;12.70;99.90;;;;;;5023193;28;20045;-70
2022/07/15 03:24:14;;;;;;;8.25;2.63;;;12.70;99.90;;;;;;5022779;28;20041;-69
2022/07/15 03:26:40;;;;;;;8.25;2.20;;;12.70;99.90;;;;;;5023057;28;20033;-71
2022/07/15 03:29:05;;;;;;;4.50;1.67;;;12.70;99.90;;;;;;5023151;28;20044;-70
2022/07/15 03:31:31;;;;;;;1.83;0.90;;;12.70;99.90;;;;;;5022007;28;20065;-71
2022/07/15 03:33:57;;;;;;;3.50;1.05;;;12.70;99.90;;;;;;5022293;28;20046;-71
2022/07/15 03:36:25;;;;;;;2.42;1.17;;;12.80;99.90;;;;;;5023214;28;20060;-70
2022/07/15 03:38:51;;;;;;;6.55;1.35;;;12.70;99.90;;;;;;5022100;28;20084;-71
2022/07/15 03:41:21;;;;;;;10.98;0.98;;;12.80;99.90;;;;;;5022964;28;20389;-70
2022/07/15 03:43:47;;;;;;;1.30;0.77;;;12.70;99.90;;;;;;5022962;28;20025;-69
2022/07/15 03:46:15;;;;;;;0.98;0.57;;;12.80;99.90;;;;;;5022063;28;20036;-71
2022/07/15 03:48:42;;;;;;;3.13;1.27;;;12.70;99.90;;;;;;5022181;28;20070;-70
2022/07/15 03:51:09;;;;;;;1.40;0.80;;;12.70;99.90;;;;;;5023063;28;20151;-69
2022/07/15 03:53:34;;;;;;;5.25;1.05;;;12.70;99.90;;;;;;5021317;28;20034;-69
2022/07/15 03:56:00;;;;;;;0.50;0.50;;;12.70;99.90;;;;;;5022513;28;20033;-70
2022/07/15 03:58:25;;;;;;;5.18;1.23;;;12.60;99.90;;;;;;5022359;28;20026;-70
2022/07/15 04:00:51;;;;;;;3.15;1.02;;;12.60;99.90;;;;;;5022443;28;20336;-69
2022/07/15 04:03:16;;;;;;;10.38;1.17;;;12.60;99.90;;;;;;5022353;28;20097;-70
2022/07/15 04:05:45;;;;;;;6.38;1.20;;;12.60;99.90;;;;;;5022420;28;20026;-71
2022/07/15 04:08:11;;;;;;;1.17;0.70;;;12.60;99.90;;;;;;5022344;28;20030;-69
2022/07/15 04:10:37;;;;;;;4.05;0.95;;;12.60;99.90;;;;;;5022351;28;20038;-70
2022/07/15 04:13:03;;;;;;;5.22;1.30;;;12.60;99.90;;;;;;5021765;28;20076;-71
2022/07/15 04:15:28;;;;;;;2.22;0.68;;;12.60;99.90;;;;;;5022542;28;20026;-69
2022/07/15 04:17:55;;;;;;;0.85;0.68;;;12.60;99.90;;;;;;5021972;28;20021;-69
2022/07/15 04:20:20;;;;;;;2.92;0.63;;;12.60;99.90;;;;;;5021483;28;20020;-68
2022/07/15 04:22:46;;;;;;;0.82;0.50;;;12.70;99.90;;;;;;5022415;28;20042;-71
2022/07/15 04:25:18;;;;;;;1.20;0.80;;;12.70;99.90;;;;;;5022127;28;20026;-69
2022/07/15 04:27:45;;;;;;;6.13;1.05;;;12.70;99.90;;;;;;5021528;28;20022;-71
2022/07/15 04:30:12;;;;;;;1.30;0.52;;;12.80;99.90;;;;;;5022394;28;20061;-70
2022/07/15 04:32:38;;;;;;;11.13;1.48;;;12.80;99.90;;;;;;5021806;28;20139;-69
2022/07/15 04:35:05;;;;;;;5.97;0.70;;;12.80;99.90;;;;;;5020992;28;20038;-70
2022/07/15 04:37:31;;;;;;;7.85;0.85;;;12.80;99.90;;;;;;5021417;28;20683;-69
2022/07/15 04:39:56;;;;;;;3.15;0.95;;;12.90;99.90;;;;;;5021524;28;20032;-70
2022/07/15 04:42:22;;;;;;;2.83;0.75;;;12.90;99.90;;;;;;5021730;28;20026;-69
2022/07/15 04:44:48;;;;;;;1.92;0.90;;;12.80;99.90;;;;;;5021319;28;20028;-70
2022/07/15 04:47:15;;;;;;;0.82;0.50;;;12.90;99.90;;;;;;5021473;28;20034;-70
2022/07/15 04:52:25;;;;;;;5.72;0.93;;;12.90;99.90;;;;;;5020414;28;20068;-71
2022/07/15 04:54:52;;;;;;;1.55;0.52;;;12.90;99.90;;;;;;5021273;28;20042;-71
2022/07/15 04:57:18;;;;;;;10.07;0.70;;;12.90;99.90;;;;;;5019939;28;20053;-69
2022/07/15 04:59:44;;;;;;;1.25;0.65;;;12.90;99.90;;;;;;5020470;28;20039;-70
2022/07/15 05:02:09;;;;;;;5.05;0.93;;;12.90;99.90;;;;;;5019202;28;20041;-71
2022/07/15 05:04:35;;;;;;;1.33;0.88;;;13.00;99.90;;;;;;5021159;28;20113;-69
2022/07/15 05:07:01;;;;;;;0.75;0.60;;;12.90;99.90;;;;;;5019907;28;20030;-70
2022/07/15 05:09:27;;;;;;;4.53;0.85;;;13.00;99.90;;;;;;5019373;28;20121;-70
2022/07/15 05:11:52;;;;;;;1.95;0.80;;;13.00;99.90;;;;;;5019839;28;20049;-71
2022/07/15 05:14:18;;;;;;;1.80;0.40;;;13.10;99.90;;;;;;5020566;28;20030;-70
2022/07/15 05:16:44;;;;;;;7.75;0.70;;;13.20;99.90;;;;;;5020925;28;20030;-70
2022/07/15 05:19:09;;;;;;;5.05;0.63;;;13.10;99.90;;;;;;5021082;28;20038;-70
2022/07/15 05:21:35;;;;;;;1.10;0.38;;;13.20;99.90;;;;;;5020434;28;20026;-69
2022/07/15 05:24:01;;;;;;;0.30;0.20;;;13.20;99.90;;;;;;5020798;28;20021;-70
2022/07/15 05:26:26;;;;;;;6.88;0.57;;;13.30;99.90;;;;;;5021335;28;20041;-71
2022/07/15 05:28:52;;;;;;;9.02;0.85;;;13.30;99.90;;;;;;5019785;28;20034;-69
2022/07/15 05:31:18;;;;;;;4.13;0.60;;;13.30;99.90;;;;;;5020921;28;20065;-70
2022/07/15 05:33:43;;;;;;;0.35;0.35;;;13.40;99.90;;;;;;5021209;28;20052;-71
2022/07/15 05:36:13;;;;;;;1.48;0.63;;;13.40;99.90;;;;;;5020015;28;20018;-72
2022/07/15 05:38:40;;;;;;;0.82;0.32;;;13.50;99.90;;;;;;5020043;28;20025;-68
2022/07/15 05:41:06;;;;;;;0.68;0.40;;;13.50;99.90;;;;;;5020830;28;20022;-70
2022/07/15 05:43:32;;;;;;;1.45;0.70;;;13.60;99.90;;;;;;5020240;28;20026;-70
2022/07/15 05:45:57;;;;;;;0.30;0.28;;;13.60;99.90;;;;;;5019540;28;20034;-71
2022/07/15 05:48:23;;;;;;;1.85;0.95;;;13.60;99.90;;;;;;5020990;28;20037;-69
2022/07/15 05:50:49;;;;;;;0.82;0.47;;;13.70;99.90;;;;;;5019640;28;20114;-70
2022/07/15 05:53:15;;;;;;;6.05;0.68;;;13.70;99.90;;;;;;5018351;28;20041;-72
2022/07/15 05:55:41;;;;;;;0.60;0.55;;;13.70;99.90;;;;;;5020751;28;20034;-70
2022/07/15 05:58:08;;;;;;;2.22;0.55;;;13.80;99.90;;;;;;5019983;28;20504;-69
2022/07/15 06:00:34;;;;;;;1.02;0.60;;;13.80;99.90;;;;;;5020569;28;20030;-68
2022/07/15 06:03:01;;;;;;;0.98;0.43;;;13.90;99.90;;;;;;5020077;28;20044;-69
2022/07/15 06:05:27;;;;;;;1.00;0.68;;;13.90;99.90;;;;;;5020310;28;20030;-68
2022/07/15 06:07:53;;;;;;;0.43;0.40;;;14.00;99.90;;;;;;5019720;28;20030;-70
2022/07/15 06:10:19;;;;;;;4.18;0.95;;;14.00;99.90;;;;;;5021205;28;20045;-69
2022/07/15 06:12:45;;;;;;;3.42;0.40;;;14.10;99.90;;;;;;5019454;28;20045;-70
2022/07/15 06:15:11;;;;;;;2.35;0.80;;;14.10;99.90;;;;;;5021012;28;20474;-69
2022/07/15 06:17:37;;;;;;;2.28;0.93;;;14.20;99.90;;;;;;5020102;28;20057;-69
2022/07/15 06:20:03;;;;;;;0.63;0.50;;;14.20;99.90;;;;;;5019303;28;20030;-69
2022/07/15 06:22:29;;;;;;;6.05;0.82;;;14.30;99.90;;;;;;5019563;28;20034;-68
2022/07/15 06:24:54;;;;;;;0.55;0.50;;;14.30;99.90;;;;;;5020613;28;20026;-69
2022/07/15 06:27:21;;;;;;;1.33;0.47;;;14.40;99.90;;;;;;5023393;28;20367;-69
2022/07/15 06:29:50;;;;;;;7.20;0.55;;;14.40;99.90;;;;;;5023010;28;20014;-69
2022/07/15 06:32:16;;;;;;;9.85;0.50;;;14.50;99.90;;;;;;5022036;28;20054;-69
2022/07/15 06:34:42;;;;;;;3.53;0.90;;;14.50;99.90;;;;;;5024202;28;20028;-68
2022/07/15 06:37:07;;;;;;;2.28;0.70;;;14.50;99.90;;;;;;5023473;28;20054;-69
2022/07/15 06:39:33;;;;;;;0.55;0.47;;;14.60;99.90;;;;;;5023347;28;20029;-69
2022/07/15 06:42:00;;;;;;;0.57;0.38;;;14.60;99.90;;;;;;5022532;28;20083;-72
2022/07/15 06:44:26;;;;;;;0.90;0.30;;;14.60;99.90;;;;;;5023245;28;20089;-73
2022/07/15 06:46:52;;;;;;;0.10;0.10;;;14.70;99.90;;;;;;5021864;28;20034;-72
2022/07/15 06:49:18;;;;;;;5.28;1.25;;;14.70;99.90;;;;;;5021939;28;20054;-70
2022/07/15 06:51:43;;;;;;;0.63;0.43;;;14.80;99.90;;;;;;5021330;28;20030;-70
2022/07/15 06:54:09;;;;;;;2.22;0.57;;;14.90;99.90;;;;;;5021901;28;20040;-68
2022/07/15 06:56:35;;;;;;;3.22;0.88;;;14.90;99.90;;;;;;5022536;28;20065;-70
2022/07/15 06:59:00;;;;;;;3.20;0.90;;;15.00;99.90;;;;;;5021597;28;20028;-68
2022/07/15 07:01:26;;;;;;;0.65;0.32;;;15.00;99.90;;;;;;5020602;28;20034;-69
2022/07/15 07:03:52;;;;;;;0.30;0.30;;;15.10;99.90;;;;;;5022610;28;20580;-69
2022/07/15 07:06:17;;;;;;;1.20;0.47;;;15.10;99.90;;;;;;5024015;28;21371;-69
2022/07/15 07:08:46;;;;;;;1.73;0.30;;;15.10;99.90;;;;;;5023352;28;20026;-68
2022/07/15 07:11:12;;;;;;;2.13;0.63;;;15.20;99.90;;;;;;5022672;28;20065;-68
2022/07/15 07:13:37;;;;;;;1.13;0.50;;;15.20;99.90;;;;;;5022194;28;20049;-68
2022/07/15 07:16:04;;;;;;;0.40;0.30;;;15.20;99.90;;;;;;5022995;28;20036;-69
2022/07/15 07:18:30;;;;;;;0.70;0.38;;;15.20;99.90;;;;;;5023050;28;20060;-66
2022/07/15 07:20:56;;;;;;;1.75;0.60;;;15.30;99.90;;;;;;5022416;28;20044;-68
2022/07/15 07:23:26;;;;;;;0.08;0.08;;;15.30;99.90;;;;;;5023498;28;20112;-68
2022/07/15 07:25:52;;;;;;;0.55;0.40;;;15.40;99.90;;;;;;5022971;28;20021;-68
2022/07/15 07:28:29;;;;;;;1.88;0.55;;;15.40;99.90;;;;;;5023136;28;20033;-71
2022/07/15 07:30:54;;;;;;;0.20;0.20;;;15.50;99.90;;;;;;5022062;28;20041;-67
2022/07/15 07:33:21;;;;;;;4.75;0.32;;;15.60;99.90;;;;;;5021792;28;20038;-67
2022/07/15 07:35:47;;;;;;;0.63;0.40;;;15.50;99.90;;;;;;5023007;28;20030;-70
2022/07/15 07:38:12;;;;;;;0.43;0.35;;;15.50;99.90;;;;;;5020932;28;20076;-70
2022/07/15 07:40:38;;;;;;;0.43;0.32;;;15.50;99.90;;;;;;5023160;28;20040;-65
2022/07/15 07:43:03;;;;;;;1.02;0.30;;;15.30;99.90;;;;;;5021662;28;20037;-66
2022/07/15 07:45:29;;;;;;;2.75;0.65;;;15.30;99.90;;;;;;5022917;28;20033;-71
2022/07/15 07:47:55;;;;;;;2.80;0.50;;;15.30;99.90;;;;;;5022119;28;20022;-70
2022/07/15 07:50:21;;;;;;;7.35;1.02;;;15.30;99.90;;;;;;5022234;28;20455;-67
2022/07/15 07:52:48;;;;;;;0.75;0.47;;;15.30;99.90;;;;;;5021492;28;20069;-69
2022/07/15 07:55:14;;;;;;;2.83;0.52;;;15.30;99.90;;;;;;5021468;28;20029;-66
2022/07/15 07:58:11;;;;;;;0.00;0.00;;;15.40;99.90;;;;;;5021702;28;20049;-68
2022/07/15 08:00:37;;;;;;;0.30;0.30;;;15.60;99.90;;;;;;5016595;28;20060;-67
2022/07/15 08:03:03;;;;;;;1.95;0.43;;;15.60;99.90;;;;;;5017244;28;21056;-68
2022/07/15 08:05:28;;;;;;;1.17;0.17;;;15.70;99.90;;;;;;5011185;28;20038;-68
2022/07/15 08:08:15;;;;;;;1.35;0.70;;;15.80;99.90;;;;;;5011656;28;20030;-68
2022/07/15 08:10:45;;;;;;;0.63;0.43;;;16.00;99.90;;;;;;5020784;28;20021;-67
2022/07/15 08:13:12;;;;;;;0.35;0.15;;;15.90;99.90;;;;;;5020226;28;20137;-70
2022/07/15 08:15:38;;;;;;;0.68;0.50;;;16.00;99.90;;;;;;5019112;28;20030;-69
2022/07/15 08:18:04;;;;;;;3.40;0.57;;;16.00;99.90;;;;;;5021408;28;20124;-66
2022/07/15 08:20:31;;;;;;;10.18;0.45;;;16.10;99.90;;;;;;5019069;28;20058;-69
2022/07/15 08:22:58;;;;;;;0.10;0.10;;;16.10;99.90;;;;;;5020171;28;20152;-68
2022/07/15 08:25:32;;;;;;;0.10;0.10;;;16.30;99.90;;;;;;5020570;28;20029;-68
2022/07/15 08:27:59;;;;;;;0.65;0.50;;;16.20;99.90;;;;;;5019823;28;20057;-69
2022/07/15 08:30:26;;;;;;;0.70;0.38;;;16.30;99.90;;;;;;5021706;28;20041;-66
2022/07/15 08:32:52;;;;;;;1.58;0.45;;;16.40;99.90;;;;;;5021530;28;20038;-67
2022/07/15 08:35:18;;;;;;;3.53;0.82;;;16.40;99.90;;;;;;5022098;28;20057;-66
2022/07/15 08:37:43;;;;;;;1.67;0.43;;;16.50;99.90;;;;;;5022226;28;20042;-67
2022/07/15 08:40:10;;;;;;;0.20;0.20;;;16.60;99.90;;;;;;5020265;28;20034;-68
2022/07/15 08:42:43;;;;;;;7.88;0.52;;;16.70;99.90;;;;;;5019785;28;20056;-70
2022/07/15 08:45:10;;;;;;;0.43;0.22;;;16.70;99.90;;;;;;5019910;28;20030;-70
2022/07/15 08:47:38;;;;;;;0.47;0.22;;;16.80;99.90;;;;;;5020340;28;20484;-67
2022/07/15 08:50:04;;;;;;;0.90;0.32;;;16.80;99.90;;;;;;5019259;28;20030;-70
2022/07/15 08:52:33;;;;;;;1.23;0.73;;;16.80;99.90;;;;;;5020068;28;20049;-71
2022/07/15 08:54:59;;;;;;;0.28;0.10;;;16.90;99.90;;;;;;5018340;28;20110;-70
2022/07/15 08:57:24;;;;;;;3.65;0.50;;;17.10;99.90;;;;;;5020828;28;20081;-70
2022/07/15 08:59:52;;;;;;;0.22;0.22;;;17.20;99.90;;;;;;5020402;28;20034;-68
2022/07/15 09:02:21;;;;;;;1.77;0.60;;;17.20;99.90;;;;;;5020774;28;20036;-67
2022/07/15 09:05:18;;;;;;;3.30;0.75;;;17.40;99.90;;;;;;5021333;28;20095;-71
2022/07/15 09:07:56;;;;;;;7.57;0.80;;;17.40;99.90;;;;;;5020982;28;20037;-70
2022/07/15 09:10:25;;;;;;;0.70;0.32;;;17.40;99.90;;;;;;5021386;28;20034;-69
2022/07/15 09:12:52;;;;;;;0.47;0.28;;;17.50;99.90;;;;;;5019604;28;20045;-71
2022/07/15 09:15:40;;;;;;;3.85;0.73;;;17.50;99.90;;;;;;5021024;28;20018;-68
2022/07/15 09:18:15;;;;;;;5.03;0.85;;;17.50;99.90;;;;;;5018933;28;20040;-74
2022/07/15 09:20:43;;;;;;;0.73;0.40;;;17.60;99.90;;;;;;5019789;28;20032;-70
2022/07/15 09:23:10;;;;;;;0.50;0.20;;;17.90;99.90;;;;;;5018551;28;20048;-71
2022/07/15 09:25:38;;;;;;;0.40;0.20;;;17.90;99.90;;;;;;5021073;28;20026;-68
2022/07/15 09:28:06;;;;;;;0.30;0.20;;;18.00;99.90;;;;;;5018869;28;20026;-69
2022/07/15 09:33:38;;;;;;;2.53;0.25;;;18.00;99.90;;;;;;5020532;28;20069;-67
2022/07/15 09:36:25;;;;;;;0.35;0.10;;;18.10;99.90;;;;;;5019618;28;20038;-66
2022/07/15 09:39:07;;;;;;;0.60;0.30;;;18.20;99.90;;;;;;5020581;28;20053;-70
2022/07/15 09:41:35;;;;;;;4.38;0.50;;;18.20;99.90;;;;;;5020830;28;20098;-72
2022/07/15 09:44:09;;;;;;;1.88;0.20;;;18.10;99.90;;;;;;5020656;28;20025;-68
2022/07/15 09:46:49;;;;;;;0.30;0.20;;;17.90;99.90;;;;;;5021531;28;20034;-67
2022/07/15 09:49:24;;;;;;;0.88;0.35;;;17.80;99.90;;;;;;5021162;28;20054;-70
2022/07/15 09:51:58;;;;;;;0.40;0.20;;;17.60;99.90;;;;;;5015326;28;20026;-70
2022/07/15 09:54:31;;;;;;;0.40;0.20;;;17.30;99.90;;;;;;5004986;28;20034;-71
2022/07/15 09:57:02;;;;;;;1.70;0.32;;;17.20;99.90;;;;;;5010523;28;20064;-72
2022/07/15 09:59:29;;;;;;;1.17;0.32;;;17.00;99.90;;;;;;5019333;28;20057;-68
2022/07/15 10:01:55;;;;;;;0.98;0.35;;;16.80;99.90;;;;;;5021799;28;20022;-68
2022/07/15 10:04:24;;;;;;;0.10;0.10;;;16.70;99.90;;;;;;5022005;28;20421;-70
2022/07/15 10:06:52;;;;;;;1.40;0.80;;;16.60;99.90;;;;;;5024299;28;20018;-70
2022/07/15 10:09:29;;;;;;;0.28;0.10;;;16.40;99.90;;;;;;5023607;28;20029;-71
2022/07/15 10:11:59;;;;;;;9.43;0.32;;;16.10;99.90;;;;;;5023418;28;20049;-69
2022/07/15 10:14:53;;;;;;;0.40;0.40;;;16.00;99.90;;;;;;5024182;28;20088;-69
2022/07/15 10:17:30;;;;;;;0.70;0.35;;;15.90;99.90;;;;;;5020297;28;20041;-71
2022/07/15 10:20:11;;;;;;;0.93;0.60;;;15.90;99.90;;;;;;5023248;28;20030;-68
2022/07/15 10:22:56;;;;;;;2.50;0.38;;;16.00;99.90;;;;;;5022495;28;20057;-68
2022/07/15 10:25:36;;;;;;;0.20;0.20;;;16.10;99.90;;;;;;5022620;28;20072;-68
2022/07/15 10:28:13;;;;;;;3.50;0.55;;;16.30;99.90;;;;;;5018084;28;20037;-66
2022/07/15 10:30:39;;;;;;;0.80;0.30;;;16.30;99.90;;;;;;5023071;28;20025;-70
2022/07/15 10:33:13;;;;;;;1.17;0.30;;;16.40;99.90;;;;;;5023364;28;20516;-68
2022/07/15 10:35:46;;;;;;;0.15;0.15;;;16.60;99.90;;;;;;5022691;28;20946;-66
2022/07/15 10:38:33;;;;;;;0.57;0.38;;;16.80;99.90;;;;;;5022262;28;20030;-71
2022/07/15 10:41:11;;;;;;;2.92;0.52;;;17.00;99.90;;;;;;5022309;28;20120;-70
2022/07/15 10:43:45;;;;;;;0.52;0.17;;;17.20;99.90;;;;;;5022775;28;20409;-70
2022/07/15 10:46:23;;;;;;;0.25;0.15;;;17.40;99.90;;;;;;5022498;28;20030;-69
2022/07/15 10:48:59;;;;;;;0.03;0.03;;;17.50;99.90;;;;;;5023145;28;20040;-67
2022/07/15 10:51:37;;;;;;;7.65;0.43;;;17.60;99.90;;;;;;5023525;28;20021;-68
2022/07/15 10:54:09;;;;;;;0.00;0.00;;;17.90;99.90;;;;;;5023125;28;20038;-67
2022/07/15 10:56:41;;;;;;;1.02;0.52;;;18.00;99.90;;;;;;5022429;28;20260;-69
2022/07/15 10:59:23;;;;;;;4.43;0.65;;;18.10;99.90;;;;;;5023975;28;20030;-67
2022/07/15 11:01:50;;;;;;;0.25;0.20;;;18.20;99.90;;;;;;5023361;28;20036;-70
2022/07/15 11:04:18;;;;;;;0.40;0.30;;;18.30;99.90;;;;;;5023790;28;20026;-68
2022/07/15 11:07:02;;;;;;;0.43;0.28;;;18.40;99.90;;;;;;5023183;28;20022;-69
2022/07/15 11:09:49;;;;;;;1.15;0.30;;;18.60;99.90;;;;;;5022061;28;20081;-68
2022/07/15 11:12:28;;;;;;;0.00;0.00;;;18.70;99.90;;;;;;5028049;28;20470;-68
2022/07/15 11:14:55;;;;;;;0.98;0.10;;;18.80;99.90;;;;;;5021980;28;20026;-67
2022/07/15 11:17:29;;;;;;;0.10;0.10;;;19.00;99.90;;;;;;5020530;28;20021;-68
2022/07/15 11:20:05;;;;;;;;;;;19.10;99.90;;;;;;5021779;28;20034;-68
2022/07/15 11:22:32;;;;;;;0.32;0.10;;;19.30;99.90;;;;;;5021747;28;19972;-71
2022/07/15 11:24:57;;;;;;;0.88;0.32;;;19.50;99.90;;;;;;5020767;28;20053;-69
2022/07/15 11:27:24;;;;;;;0.25;0.20;;;19.60;99.90;;;;;;5020310;28;20029;-70
2022/07/15 11:30:01;;;;;;;0.08;0.00;;;19.80;99.90;;;;;;5020889;28;20109;-67
2022/07/15 11:32:28;;;;;;;0.00;0.00;;;19.50;99.90;;;;;;5019930;28;20065;-68
2022/07/15 11:34:56;;;;;;;0.10;0.00;;;19.30;99.90;;;;;;5021100;28;20888;-73
2022/07/15 11:37:33;;;;;;;1.25;0.20;;;18.90;99.90;;;;;;5020933;28;20080;-69
2022/07/15 11:44:29;;;;;;;7.40;0.40;;;19.00;99.90;;;;;;5020770;28;20034;-68
2022/07/15 11:45:42;;;;;;;;;;;19.40;99.90;;;;;;5012159;28;20032;-71
2022/07/15 11:48:08;;;;;;;0.20;0.05;;;19.60;99.90;;;;;;5016228;28;19909;-73
2022/07/15 11:50:36;;;;;;;0.60;0.20;;;19.70;99.90;;;;;;5020139;28;20040;-69
2022/07/15 11:53:12;;;;;;;0.47;0.20;;;20.00;99.90;;;;;;5020532;28;20103;-68
2022/07/15 11:55:58;;;;;;;0.35;0.30;;;20.20;99.90;;;;;;5020038;28;20029;-67
2022/07/15 11:58:32;;;;;;;0.10;0.10;;;20.40;99.90;;;;;;5020557;28;20041;-69
2022/07/15 12:01:00;;;;;;;2.70;0.17;;;20.40;99.90;;;;;;5022128;28;20120;-68
2022/07/15 12:03:40;;;;;;;0.03;0.03;;;20.60;99.90;;;;;;5019916;28;20032;-66
2022/07/15 12:06:12;;;;;;;1.33;0.30;;;20.80;99.90;;;;;;5019000;28;20034;-69
2022/07/15 12:09:03;;;;;;;0.65;0.30;;;21.20;99.90;;;;;;5015524;28;20116;-68
2022/07/15 12:11:30;;;;;;;1.35;0.38;;;21.00;99.90;;;;;;5022683;28;20975;-70
2022/07/15 12:14:22;;;;;;;0.65;0.40;;;20.70;99.90;;;;;;5022219;28;20036;-69
2022/07/15 12:16:52;;;;;;;1.40;0.28;;;20.40;99.90;;;;;;5016963;28;20037;-67
2022/07/15 12:19:30;;;;;;;1.45;0.40;;;20.20;99.90;;;;;;5017097;28;20060;-71
2022/07/15 12:21:58;;;;;;;0.55;0.32;;;20.00;99.90;;;;;;5020723;28;20025;-69
2022/07/15 12:24:26;;;;;;;0.20;0.10;;;19.70;99.90;;;;;;5019946;28;20506;-68
2022/07/15 12:26:54;;;;;;;0.17;0.17;;;19.50;99.90;;;;;;5018186;28;20057;-69
2022/07/15 12:29:23;;;;;;;4.38;0.20;;;19.30;99.90;;;;;;5020246;28;20085;-69
2022/07/15 12:32:08;;;;;;;0.95;0.30;;;19.20;99.90;;;;;;5020262;28;20022;-68
2022/07/15 12:34:46;;;;;;;0.10;0.10;;;19.10;99.90;;;;;;5019158;28;20105;-67
2022/07/15 12:37:13;;;;;;;0.00;0.00;;;19.20;99.90;;;;;;5019666;28;20038;-68
2022/07/15 12:40:00;;;;;;;0.82;0.20;;;19.50;99.90;;;;;;5019842;28;20033;-69
2022/07/15 12:42:37;;;;;;;3.65;0.20;;;19.90;99.90;;;;;;5021779;28;20053;-72
2022/07/15 12:45:11;;;;;;;0.10;0.10;;;20.10;99.90;;;;;;5018904;28;20378;-72
2022/07/15 12:47:55;;;;;;;0.70;0.25;;;20.30;99.90;;;;;;5019542;28;20064;-67
2022/07/15 12:50:21;;;;;;;0.52;0.20;;;20.30;99.90;;;;;;5020403;28;20101;-70
2022/07/15 12:52:47;;;;;;;2.15;0.32;;;20.20;99.90;;;;;;5017853;28;20042;-67
2022/07/15 12:55:19;;;;;;;1.00;0.28;;;19.90;99.90;;;;;;5020993;28;20466;-74
2022/07/15 12:57:45;;;;;;;0.32;0.10;;;19.60;99.90;;;;;;5019429;28;20053;-71
2022/07/15 13:00:15;;;;;;;0.20;0.20;;;19.30;99.90;;;;;;5021046;28;20117;-70
2022/07/15 13:03:06;;;;;;;1.17;0.17;;;19.10;99.90;;;;;;5020848;28;20022;-75
2022/07/15 13:05:38;;;;;;;1.85;0.35;;;19.00;99.90;;;;;;5018989;28;20615;-70
2022/07/15 13:08:05;;;;;;;0.10;0.10;;;19.00;99.90;;;;;;5020057;28;20104;-68